Time;durP1;ratioP1;P1;durP2;ratioP2;P2;SDS_P1;SDS_P2;PMS_P1;PMS_P2;Temp;Humidity;BMP_temperature;BMP_pressure;BME280_temperature;BME280_humidity;BME280_pressure;Samples;Min_cycle;Max_cycle;Signal;HPM_P1;HPM_P2
2023/10/17 00:01:18;;;;;;;5.73;2.70;;;;;;;;;;4963033;28;20662;-89
2023/10/17 00:03:45;;;;;;;8.53;2.70;;;;;;;;;;4978871;28;20363;-88
2023/10/17 00:06:22;;;;;;;2.50;2.30;;;;;;;;;;4967112;28;20276;-88
2023/10/17 00:08:50;;;;;;;5.30;2.80;;;;;;;;;;4974009;28;20232;-88
2023/10/17 00:11:16;;;;;;;2.40;2.20;;;;;;;;;;4955553;28;20225;-88
2023/10/17 00:13:45;;;;;;;2.80;2.23;;;;;;;;;;4955517;28;20924;-88
2023/10/17 00:16:17;;;;;;;3.20;2.90;;;;;;;;;;4969946;28;20319;-88
2023/10/17 00:18:45;;;;;;;3.10;2.70;;;;;;;;;;4957332;28;20216;-88
2023/10/17 00:21:15;;;;;;;4.03;2.50;;;;;;;;;;4972198;28;20288;-88
2023/10/17 00:23:42;;;;;;;3.67;2.30;;;;;;;;;;4960549;28;20236;-88
2023/10/17 00:26:14;;;;;;;6.70;3.10;;;;;;;;;;4956596;28;20693;-87
2023/10/17 00:28:48;;;;;;;3.50;2.90;;;;;;;;;;4980969;28;20239;-88
2023/10/17 00:31:14;;;;;;;4.13;3.23;;;;;;;;;;4994183;28;20266;-88
2023/10/17 00:33:47;;;;;;;4.23;3.07;;;;;;;;;;4960440;28;20225;-88
2023/10/17 00:36:17;;;;;;;4.80;2.90;;;;;;;;;;4984843;28;20229;-88
2023/10/17 00:38:45;;;;;;;3.30;2.67;;;;;;;;;;4951576;28;20271;-87
2023/10/17 00:41:27;;;;;;;4.50;3.10;;;;;;;;;;4990019;28;20866;-88
2023/10/17 00:43:53;;;;;;;3.87;3.10;;;;;;;;;;4977240;28;20227;-87
2023/10/17 00:46:19;;;;;;;3.53;2.70;;;;;;;;;;4973691;28;20692;-89
2023/10/17 00:48:47;;;;;;;7.13;2.87;;;;;;;;;;4965674;28;20225;-88
2023/10/17 00:51:17;;;;;;;2.97;2.60;;;;;;;;;;4959123;28;20640;-88
2023/10/17 00:53:43;;;;;;;2.97;2.63;;;;;;;;;;4983490;28;20228;-85
2023/10/17 00:56:09;;;;;;;4.17;2.80;;;;;;;;;;4979347;28;20273;-87
2023/10/17 00:58:36;;;;;;;3.03;2.47;;;;;;;;;;4996232;28;20210;-86
2023/10/17 01:01:20;;;;;;;6.87;2.23;;;;;;;;;;4995492;28;20244;-86
2023/10/17 01:03:47;;;;;;;2.30;2.10;;;;;;;;;;4999978;28;20225;-86
2023/10/17 01:06:21;;;;;;;2.73;2.30;;;;;;;;;;4995782;28;20616;-86
2023/10/17 01:08:47;;;;;;;4.43;2.60;;;;;;;;;;4998024;28;20241;-87
2023/10/17 01:11:27;;;;;;;2.47;2.27;;;;;;;;;;4994148;28;20229;-86
2023/10/17 01:14:00;;;;;;;2.23;2.13;;;;;;;;;;4978324;28;20225;-89
2023/10/17 01:16:26;;;;;;;3.53;2.40;;;;;;;;;;4960293;28;20225;-89
2023/10/17 01:18:53;;;;;;;2.87;2.30;;;;;;;;;;4977288;28;20792;-88
2023/10/17 01:21:19;;;;;;;2.97;2.33;;;;;;;;;;4984424;28;20209;-88
2023/10/17 01:23:46;;;;;;;6.33;2.60;;;;;;;;;;4963380;28;20212;-86
2023/10/17 01:26:20;;;;;;;5.37;2.57;;;;;;;;;;4961844;28;20224;-87
2023/10/17 01:28:50;;;;;;;2.87;2.30;;;;;;;;;;4982763;28;20220;-87
2023/10/17 01:31:25;;;;;;;6.23;2.33;;;;;;;;;;4967785;28;20634;-86
2023/10/17 01:33:59;;;;;;;2.00;1.87;;;;;;;;;;4961638;28;20275;-88
2023/10/17 01:36:25;;;;;;;2.83;2.20;;;;;;;;;;4960526;28;20217;-87
2023/10/17 01:38:50;;;;;;;2.30;2.10;;;;;;;;;;4970222;28;20239;-86
2023/10/17 01:41:19;;;;;;;2.20;2.00;;;;;;;;;;5001142;28;20277;-87
2023/10/17 01:43:48;;;;;;;1.90;1.80;;;;;;;;;;4998867;28;20277;-86
2023/10/17 01:46:21;;;;;;;2.33;2.13;;;;;;;;;;4999140;28;20197;-86
2023/10/17 01:48:53;;;;;;;1.93;1.83;;;;;;;;;;4987685;28;20224;-86
2023/10/17 01:51:19;;;;;;;2.37;2.10;;;;;;;;;;4982193;28;20304;-85
2023/10/17 01:53:51;;;;;;;3.23;2.00;;;;;;;;;;4983977;28;20237;-86
2023/10/17 01:56:25;;;;;;;2.77;2.23;;;;;;;;;;4992725;28;20225;-87
2023/10/17 01:58:51;;;;;;;2.30;1.90;;;;;;;;;;4998470;28;20239;-87
2023/10/17 02:01:17;;;;;;;2.43;2.10;;;;;;;;;;4990232;28;20229;-88
2023/10/17 02:03:46;;;;;;;3.23;2.17;;;;;;;;;;4988830;28;20242;-87
2023/10/17 02:06:15;;;;;;;2.87;2.20;;;;;;;;;;4966303;28;20222;-87
2023/10/17 02:08:43;;;;;;;3.17;2.07;;;;;;;;;;4971800;28;20296;-88
2023/10/17 02:11:23;;;;;;;3.37;2.00;;;;;;;;;;4990090;28;20242;-88
2023/10/17 02:13:53;;;;;;;4.60;2.00;;;;;;;;;;5000393;28;20229;-88
2023/10/17 02:16:21;;;;;;;3.17;2.20;;;;;;;;;;5002666;28;20332;-87
2023/10/17 02:18:49;;;;;;;5.27;2.00;;;;;;;;;;4975500;28;20233;-85
2023/10/17 02:21:15;;;;;;;2.93;1.90;;;;;;;;;;4975752;28;20595;-87
2023/10/17 02:23:48;;;;;;;12.23;2.73;;;;;;;;;;4967837;28;20237;-87
2023/10/17 02:26:14;;;;;;;17.87;3.00;;;;;;;;;;4977871;28;20234;-88
2023/10/17 02:28:46;;;;;;;34.30;4.30;;;;;;;;;;4968006;28;20250;-87
2023/10/17 02:31:16;;;;;;;20.67;3.43;;;;;;;;;;4981937;28;20209;-88
2023/10/17 02:33:45;;;;;;;19.57;3.47;;;;;;;;;;4979672;28;20293;-88
2023/10/17 02:36:13;;;;;;;18.67;3.40;;;;;;;;;;4965955;28;20216;-86
2023/10/17 02:38:40;;;;;;;14.90;3.50;;;;;;;;;;4987979;28;20656;-87
2023/10/17 02:41:10;;;;;;;43.40;4.43;;;;;;;;;;4969096;28;20291;-87
2023/10/17 02:43:45;;;;;;;22.63;3.70;;;;;;;;;;4984223;28;20231;-87
2023/10/17 02:46:14;;;;;;;21.70;3.80;;;;;;;;;;4965795;28;20231;-87
2023/10/17 02:48:45;;;;;;;18.40;3.40;;;;;;;;;;4973416;28;20220;-86
2023/10/17 02:51:26;;;;;;;12.73;3.30;;;;;;;;;;4970515;28;20213;-87
2023/10/17 02:53:53;;;;;;;8.13;3.57;;;;;;;;;;4969053;28;20248;-87
2023/10/17 02:56:19;;;;;;;17.27;3.50;;;;;;;;;;4967090;28;20216;-88
2023/10/17 02:58:51;;;;;;;11.97;3.30;;;;;;;;;;4981557;28;20295;-88
2023/10/17 03:01:17;;;;;;;6.17;3.30;;;;;;;;;;5010568;28;20221;-87
2023/10/17 03:03:43;;;;;;;16.10;3.50;;;;;;;;;;4964476;28;20217;-88
2023/10/17 03:06:16;;;;;;;12.70;3.47;;;;;;;;;;4969660;28;20244;-87
2023/10/17 03:09:01;;;;;;;16.80;3.33;;;;;;;;;;4978351;28;20228;-86
2023/10/17 03:11:47;;;;;;;23.73;4.30;;;;;;;;;;4975123;28;20303;-87
2023/10/17 03:14:25;;;;;;;25.03;3.77;;;;;;;;;;4990508;28;20577;-87
2023/10/17 03:16:54;;;;;;;15.20;3.37;;;;;;;;;;4972601;28;20232;-86
2023/10/17 03:19:27;;;;;;;13.97;3.73;;;;;;;;;;4990945;28;20263;-87
2023/10/17 03:21:55;;;;;;;6.23;3.70;;;;;;;;;;4988505;28;20620;-87
2023/10/17 03:24:28;;;;;;;10.53;4.07;;;;;;;;;;4976072;28;20247;-88
2023/10/17 03:27:03;;;;;;;18.37;4.83;;;;;;;;;;4992779;28;20260;-87
2023/10/17 03:29:34;;;;;;;11.93;4.80;;;;;;;;;;4995658;28;20236;-86
2023/10/17 03:32:04;;;;;;;10.40;4.33;;;;;;;;;;4981800;28;20292;-87
2023/10/17 03:34:37;;;;;;;13.73;4.50;;;;;;;;;;4982840;28;20312;-86
2023/10/17 03:39:56;;;;;;;12.20;4.30;;;;;;;;;;4986488;28;20225;-88
2023/10/17 03:48:04;;;;;;;14.30;4.30;;;;;;;;;;4976494;28;20261;-87
2023/10/17 03:53:32;;;;;;;12.40;4.70;;;;;;;;;;4984286;28;20365;-86
2023/10/17 03:56:01;;;;;;;11.33;4.80;;;;;;;;;;4991576;28;20628;-86
2023/10/17 03:58:49;;;;;;;9.37;4.10;;;;;;;;;;4971107;28;20216;-86
2023/10/17 04:05:10;;;;;;;9.83;4.43;;;;;;;;;;5013741;28;20298;-86
2023/10/17 04:07:36;;;;;;;3.93;3.63;;;;;;;;;;4990089;28;20264;-86
2023/10/17 04:10:19;;;;;;;14.00;4.23;;;;;;;;;;4967565;28;20220;-86
2023/10/17 04:15:31;;;;;;;17.63;5.63;;;;;;;;;;4979266;28;20275;-85
2023/10/17 04:17:58;;;;;;;9.73;5.47;;;;;;;;;;4982685;28;20236;-87
2023/10/17 04:20:25;;;;;;;14.23;5.57;;;;;;;;;;5002003;28;20276;-86
2023/10/17 04:22:51;;;;;;;16.33;4.83;;;;;;;;;;4982698;28;20240;-86
2023/10/17 04:25:20;;;;;;;15.30;5.60;;;;;;;;;;4999536;28;20233;-86
2023/10/17 04:27:51;;;;;;;11.23;5.00;;;;;;;;;;4983580;28;20225;-87
2023/10/17 04:30:22;;;;;;;12.33;5.33;;;;;;;;;;4989132;28;20216;-84
2023/10/17 04:32:52;;;;;;;8.83;5.27;;;;;;;;;;4983730;28;20225;-88
2023/10/17 04:35:22;;;;;;;6.37;4.90;;;;;;;;;;4993075;28;20227;-88
2023/10/17 04:38:09;;;;;;;8.13;4.60;;;;;;;;;;4969353;28;20232;-87
2023/10/17 04:40:42;;;;;;;10.07;4.93;;;;;;;;;;4986540;28;20255;-88
2023/10/17 04:45:55;;;;;;;15.20;4.50;;;;;;;;;;4999531;28;20666;-86
2023/10/17 04:48:32;;;;;;;10.03;5.00;;;;;;;;;;4960174;28;20233;-86
2023/10/17 04:50:58;;;;;;;19.33;6.70;;;;;;;;;;4980697;28;20251;-86
2023/10/17 04:53:35;;;;;;;6.40;5.67;;;;;;;;;;4971640;28;20229;-87
2023/10/17 04:56:16;;;;;;;10.93;8.60;;;;;;;;;;4999154;28;20229;-88
2023/10/17 04:59:03;;;;;;;7.47;6.73;;;;;;;;;;4972455;28;20240;-87
2023/10/17 05:04:12;;;;;;;5.70;5.20;;;;;;;;;;4989867;28;20323;-87
2023/10/17 06:17:50;;;;;;;4.73;4.33;;;;;;;;;;5012610;28;20225;-85
2023/10/17 06:20:44;;;;;;;3.90;3.60;;;;;;;;;;4979799;28;20583;-84
2023/10/17 06:23:24;;;;;;;3.87;3.57;;;;;;;;;;5003427;28;20236;-86
2023/10/17 06:28:28;;;;;;;9.03;6.57;;;;;;;;;;5007394;28;20221;-88
2023/10/17 06:33:42;;;;;;;11.57;10.50;;;;;;;;;;5002924;28;20239;-88
2023/10/17 06:36:16;;;;;;;5.07;4.57;;;;;;;;;;4969093;28;20237;-87
2023/10/17 06:38:47;;;;;;;6.30;5.17;;;;;;;;;;4989884;28;20209;-88
2023/10/17 06:41:27;;;;;;;5.80;5.37;;;;;;;;;;4980363;28;20224;-87
2023/10/17 06:44:05;;;;;;;8.10;7.30;;;;;;;;;;4991315;28;20274;-86
2023/10/17 06:46:40;;;;;;;9.33;8.50;;;;;;;;;;4990468;28;20235;-86
2023/10/17 06:49:08;;;;;;;8.70;7.93;;;;;;;;;;4982782;28;20229;-87
2023/10/17 06:51:37;;;;;;;21.10;19.13;;;;;;;;;;4973238;28;20221;-88
2023/10/17 06:54:06;;;;;;;21.53;19.23;;;;;;;;;;4959159;28;20248;-86
2023/10/17 06:56:44;;;;;;;22.13;19.83;;;;;;;;;;4985352;28;20232;-87
2023/10/17 06:59:24;;;;;;;15.77;14.17;;;;;;;;;;4971367;28;20229;-87
2023/10/17 07:02:04;;;;;;;16.67;13.50;;;;;;;;;;4988447;28;20323;-86
2023/10/17 07:04:33;;;;;;;10.60;9.60;;;;;;;;;;4975205;28;20685;-87
2023/10/17 07:07:03;;;;;;;8.93;8.13;;;;;;;;;;4972924;28;20586;-87
2023/10/17 07:09:30;;;;;;;8.17;7.47;;;;;;;;;;4975508;28;20242;-87
2023/10/17 07:12:04;;;;;;;9.10;8.23;;;;;;;;;;4964005;28;20220;-87
2023/10/17 07:14:32;;;;;;;10.50;9.53;;;;;;;;;;4960958;28;20883;-86
2023/10/17 07:17:00;;;;;;;10.57;9.67;;;;;;;;;;4961137;28;20218;-87
2023/10/17 07:24:29;;;;;;;10.60;9.67;;;;;;;;;;4974508;28;20282;-87
2023/10/17 07:26:55;;;;;;;10.40;8.40;;;;;;;;;;4982050;28;20220;-85
2023/10/17 07:29:23;;;;;;;7.60;6.80;;;;;;;;;;4974173;28;20305;-86
2023/10/17 07:31:53;;;;;;;6.77;6.17;;;;;;;;;;4965652;28;20736;-87
2023/10/17 07:34:22;;;;;;;5.47;4.97;;;;;;;;;;4973778;28;20749;-86
2023/10/17 07:36:58;;;;;;;8.83;4.53;;;;;;;;;;4955002;28;20746;-87
2023/10/17 07:41:53;;;;;;;7.97;4.43;;;;;;;;;;4979580;28;20219;-89
2023/10/17 07:44:21;;;;;;;10.90;5.10;;;;;;;;;;4962719;28;20264;-88
2023/10/17 07:47:08;;;;;;;4.37;3.97;;;;;;;;;;4946193;28;20233;-89
2023/10/17 07:49:43;;;;;;;4.57;4.17;;;;;;;;;;4948598;28;20213;-86
2023/10/17 07:52:15;;;;;;;5.13;4.27;;;;;;;;;;4942444;28;20229;-90
2023/10/17 07:54:58;;;;;;;6.60;4.50;;;;;;;;;;4981048;28;20291;-89
2023/10/17 07:57:26;;;;;;;4.30;3.90;;;;;;;;;;4965701;28;20256;-89
2023/10/17 07:59:52;;;;;;;4.13;3.83;;;;;;;;;;4961404;28;20708;-88
2023/10/17 08:02:20;;;;;;;3.63;3.40;;;;;;;;;;4960730;28;20225;-90
2023/10/17 08:04:48;;;;;;;3.80;3.50;;;;;;;;;;4959718;28;20273;-90
2023/10/17 08:07:14;;;;;;;4.53;3.10;;;;;;;;;;4974175;28;20221;-90
2023/10/17 08:09:59;;;;;;;3.90;3.60;;;;;;;;;;4966716;28;20213;-89
2023/10/17 08:12:29;;;;;;;3.50;3.20;;;;;;;;;;4988685;28;20232;-89
2023/10/17 08:15:19;;;;;;;3.50;3.30;;;;;;;;;;4974839;28;20236;-87
2023/10/17 08:17:48;;;;;;;11.30;10.13;;;;;;;;;;4967755;28;20235;-90
2023/10/17 08:22:55;;;;;;;10.60;9.67;;;;;;;;;;4983744;28;20267;-89
2023/10/17 08:25:30;;;;;;;9.73;7.70;;;;;;;;;;4982857;28;20268;-86
2023/10/17 08:28:03;;;;;;;6.00;5.50;;;;;;;;;;4978587;28;20243;-86
2023/10/17 08:30:38;;;;;;;4.70;4.27;;;;;;;;;;4994656;28;20217;-86
2023/10/17 08:36:01;;;;;;;4.60;4.10;;;;;;;;;;5001894;28;20200;-85
2023/10/17 08:38:33;;;;;;;5.67;2.00;;;;;;;;;;5026208;28;20208;-80
2023/10/17 08:41:05;;;;;;;4.80;1.90;;;;;;;;;;5015279;28;20239;-78
2023/10/17 08:43:32;;;;;;;3.50;1.57;;;;;;;;;;5028238;28;20224;-78
2023/10/17 08:46:00;;;;;;;3.20;1.80;;;;;;;;;;5005123;28;20236;-77
2023/10/17 08:48:30;;;;;;;3.17;1.20;;;;;;;;;;4998766;28;20229;-79
2023/10/17 08:50:59;;;;;;;3.10;1.20;;;;;;;;;;4997467;28;20229;-79
2023/10/17 08:53:24;;;;;;;1.40;0.90;;;;;;;;;;5002301;28;20229;-79
2023/10/17 08:55:51;;;;;;;1.27;1.00;;;;;;;;;;4972603;28;20235;-79
2023/10/17 08:58:32;;;;;;;2.87;1.20;;;;;;;;;;4986685;28;20225;-77
2023/10/17 09:01:17;;;;;;;2.43;0.80;;;;;;;;;;4998517;28;20221;-78
2023/10/17 09:03:49;;;;;;;5.67;1.20;;;;;;;;;;5002162;28;20217;-78
2023/10/17 09:11:08;;;;;;;2.33;0.90;;;;;;;;;;4979374;28;20225;-80
2023/10/17 09:16:15;;;;;;;1.70;1.03;;;;;;;;;;5004681;28;20213;-80
2023/10/17 09:18:54;;;;;;;1.63;0.90;;;;;;;;;;5003667;28;20635;-79
2023/10/17 09:21:20;;;;;;;2.30;0.93;;;;;;;;;;4995541;28;20279;-79
2023/10/17 09:23:50;;;;;;;0.87;0.70;;;;;;;;;;5006983;28;20718;-79
2023/10/17 09:26:20;;;;;;;1.47;0.70;;;;;;;;;;4979349;28;20248;-79
2023/10/17 09:28:48;;;;;;;0.83;0.60;;;;;;;;;;5013025;28;20280;-79
2023/10/17 09:31:17;;;;;;;1.50;0.70;;;;;;;;;;4994507;28;20236;-80
2023/10/17 09:33:48;;;;;;;3.70;1.00;;;;;;;;;;4988666;28;20225;-80
2023/10/17 09:36:17;;;;;;;1.57;0.50;;;;;;;;;;4978146;28;20220;-80
2023/10/17 09:38:45;;;;;;;2.67;0.80;;;;;;;;;;4995583;28;20705;-79
2023/10/17 09:41:17;;;;;;;6.53;0.80;;;;;;;;;;5001305;28;20275;-80
2023/10/17 09:43:51;;;;;;;2.27;0.70;;;;;;;;;;5001572;28;20221;-80
2023/10/17 09:46:18;;;;;;;0.97;0.57;;;;;;;;;;5002517;28;20288;-79
2023/10/17 09:48:46;;;;;;;1.07;0.80;;;;;;;;;;4978662;28;20212;-77
2023/10/17 09:51:21;;;;;;;3.17;0.87;;;;;;;;;;4986533;28;20253;-78
2023/10/17 09:53:53;;;;;;;1.47;0.70;;;;;;;;;;4978249;28;20245;-77
2023/10/17 09:56:21;;;;;;;1.67;0.70;;;;;;;;;;4994864;28;20244;-79
2023/10/17 09:58:51;;;;;;;1.07;0.57;;;;;;;;;;4996132;28;20228;-79
2023/10/17 10:01:29;;;;;;;2.93;0.70;;;;;;;;;;5003811;28;20232;-79
2023/10/17 10:03:58;;;;;;;1.03;0.53;;;;;;;;;;4978052;28;20295;-78
2023/10/17 10:06:27;;;;;;;1.63;0.63;;;;;;;;;;5003126;28;20233;-79
2023/10/17 10:08:54;;;;;;;2.40;0.70;;;;;;;;;;4986668;28;20228;-80
2023/10/17 10:11:20;;;;;;;1.03;0.70;;;;;;;;;;5000782;28;20257;-79
2023/10/17 10:14:08;;;;;;;1.53;0.70;;;;;;;;;;4992077;28;20644;-79
2023/10/17 10:17:05;;;;;;;1.60;0.70;;;;;;;;;;4987141;28;20217;-78
2023/10/17 10:19:50;;;;;;;1.47;0.80;;;;;;;;;;5001488;28;20236;-78
2023/10/17 10:22:18;;;;;;;1.30;0.80;;;;;;;;;;5001902;28;20757;-80
2023/10/17 10:24:49;;;;;;;1.20;0.70;;;;;;;;;;4986167;28;20224;-80
2023/10/17 10:29:40;;;;;;;2.50;1.00;;;;;;;;;;5004711;28;20221;-79
2023/10/17 10:32:25;;;;;;;1.13;0.67;;;;;;;;;;4986660;28;20283;-80
2023/10/17 10:34:52;;;;;;;1.20;0.67;;;;;;;;;;5005644;28;20296;-79
2023/10/17 10:37:21;;;;;;;0.70;0.67;;;;;;;;;;5003957;28;20228;-79
2023/10/17 10:40:19;;;;;;;2.20;0.97;;;;;;;;;;5000628;28;20241;-79
2023/10/17 10:42:56;;;;;;;3.67;0.80;;;;;;;;;;4997020;28;20216;-79
2023/10/17 10:45:36;;;;;;;1.27;0.90;;;;;;;;;;4998233;28;20229;-79
2023/10/17 10:48:14;;;;;;;1.73;0.80;;;;;;;;;;5001319;28;20221;-80
2023/10/17 10:50:46;;;;;;;2.27;0.90;;;;;;;;;;5010203;28;20217;-80
2023/10/17 10:53:27;;;;;;;3.50;0.80;;;;;;;;;;4986330;28;20229;-79
2023/10/17 10:56:00;;;;;;;1.47;0.70;;;;;;;;;;4976250;28;20680;-78
2023/10/17 10:58:26;;;;;;;1.77;0.80;;;;;;;;;;4986628;28;20308;-79
2023/10/17 11:00:54;;;;;;;2.07;1.20;;;;;;;;;;4976734;28;20284;-79
2023/10/17 11:03:23;;;;;;;1.70;0.83;;;;;;;;;;4994997;28;20220;-78
2023/10/17 11:05:55;;;;;;;1.57;0.70;;;;;;;;;;4989256;28;20225;-79
2023/10/17 11:08:24;;;;;;;3.70;0.83;;;;;;;;;;4984135;28;20709;-79
2023/10/17 11:10:50;;;;;;;3.40;1.00;;;;;;;;;;4961003;28;20264;-79
2023/10/17 11:13:15;;;;;;;2.00;0.80;;;;;;;;;;4976290;28;20715;-81
2023/10/17 11:15:45;;;;;;;2.17;0.80;;;;;;;;;;4984461;28;20575;-80
2023/10/17 11:18:11;;;;;;;3.10;1.00;;;;;;;;;;4967487;28;20314;-79
2023/10/17 11:20:55;;;;;;;1.87;0.90;;;;;;;;;;4985636;28;20220;-79
2023/10/17 11:23:26;;;;;;;2.57;0.70;;;;;;;;;;4999256;28;20280;-79
2023/10/17 11:25:54;;;;;;;1.70;0.83;;;;;;;;;;4977279;28;20264;-79
2023/10/17 11:28:19;;;;;;;3.13;1.03;;;;;;;;;;4969604;28;20248;-81
2023/10/17 11:30:50;;;;;;;1.70;0.80;;;;;;;;;;4988532;28;20213;-79
2023/10/17 11:33:24;;;;;;;3.80;1.10;;;;;;;;;;4989698;28;20624;-80
2023/10/17 11:35:52;;;;;;;1.97;0.73;;;;;;;;;;4986053;28;20707;-79
2023/10/17 11:38:40;;;;;;;1.10;0.53;;;;;;;;;;4991439;28;20229;-79
2023/10/17 11:41:15;;;;;;;1.83;0.83;;;;;;;;;;5012045;28;20631;-79
2023/10/17 11:43:46;;;;;;;2.20;0.80;;;;;;;;;;4992029;28;20276;-79
2023/10/17 11:46:12;;;;;;;1.77;0.60;;;;;;;;;;5006378;28;20224;-80
2023/10/17 11:48:43;;;;;;;4.10;0.90;;;;;;;;;;4975752;28;20230;-77
2023/10/17 11:51:16;;;;;;;1.33;0.60;;;;;;;;;;4966711;28;20206;-79
2023/10/17 11:54:00;;;;;;;2.83;0.67;;;;;;;;;;4965483;28;20225;-79
2023/10/17 11:56:26;;;;;;;2.17;0.80;;;;;;;;;;4990870;28;20295;-79
2023/10/17 11:58:52;;;;;;;1.00;0.53;;;;;;;;;;4974929;28;20216;-77
2023/10/17 12:01:20;;;;;;;1.43;0.70;;;;;;;;;;4990470;28;20229;-77
2023/10/17 12:03:45;;;;;;;0.73;0.70;;;;;;;;;;4996362;28;20220;-78
2023/10/17 12:06:16;;;;;;;2.63;0.90;;;;;;;;;;4967550;28;20218;-77
2023/10/17 12:08:43;;;;;;;2.73;0.80;;;;;;;;;;4975225;28;20256;-77
2023/10/17 12:11:11;;;;;;;1.27;0.67;;;;;;;;;;4986788;28;20224;-77
2023/10/17 12:13:37;;;;;;;1.00;0.67;;;;;;;;;;5005926;28;20221;-78
2023/10/17 12:16:08;;;;;;;0.93;0.70;;;;;;;;;;4975427;28;20605;-78
2023/10/17 12:18:43;;;;;;;2.97;0.70;;;;;;;;;;4985144;28;20777;-78
2023/10/17 12:21:14;;;;;;;2.07;0.97;;;;;;;;;;4999724;28;21000;-79
2023/10/17 12:23:41;;;;;;;1.57;0.83;;;;;;;;;;4999989;28;20224;-79
2023/10/17 12:26:19;;;;;;;1.23;1.13;;;;;;;;;;5001886;28;20224;-80
2023/10/17 12:28:45;;;;;;;3.33;1.37;;;;;;;;;;4975432;28;20632;-81
2023/10/17 12:31:16;;;;;;;1.23;1.10;;;;;;;;;;4974830;28;20225;-80
2023/10/17 12:33:42;;;;;;;1.57;0.97;;;;;;;;;;5007995;28;20666;-79
2023/10/17 12:36:07;;;;;;;2.73;1.07;;;;;;;;;;4983629;28;20232;-80
2023/10/17 12:38:33;;;;;;;1.67;0.80;;;;;;;;;;4976184;28;20225;-80
2023/10/17 12:41:06;;;;;;;3.10;0.90;;;;;;;;;;5004548;28;20796;-80
2023/10/17 12:43:34;;;;;;;2.90;1.07;;;;;;;;;;4988794;28;20224;-79
2023/10/17 12:46:02;;;;;;;5.73;1.00;;;;;;;;;;4981175;28;20224;-79
2023/10/17 12:48:28;;;;;;;1.70;0.70;;;;;;;;;;5001492;28;20233;-79
2023/10/17 12:50:54;;;;;;;1.27;0.80;;;;;;;;;;4986210;28;20219;-79
2023/10/17 12:53:19;;;;;;;1.90;0.83;;;;;;;;;;4964968;28;20229;-77
2023/10/17 12:55:56;;;;;;;1.23;0.90;;;;;;;;;;4990434;28;20230;-78
2023/10/17 12:58:24;;;;;;;2.50;1.00;;;;;;;;;;4981467;28;20576;-78
2023/10/17 13:00:49;;;;;;;2.10;1.10;;;;;;;;;;4989283;28;20264;-79
2023/10/17 13:03:18;;;;;;;4.73;1.10;;;;;;;;;;4957360;28;20608;-78
2023/10/17 13:05:46;;;;;;;2.77;0.83;;;;;;;;;;4981328;28;20274;-79
2023/10/17 13:08:14;;;;;;;2.57;1.00;;;;;;;;;;4974192;28;20710;-79
2023/10/17 13:10:40;;;;;;;2.23;1.00;;;;;;;;;;4982119;28;20278;-80
2023/10/17 13:13:05;;;;;;;1.93;0.93;;;;;;;;;;4984963;28;20633;-80
2023/10/17 13:15:35;;;;;;;1.50;1.20;;;;;;;;;;4988229;28;20256;-80
2023/10/17 13:18:03;;;;;;;1.20;0.80;;;;;;;;;;4977672;28;20249;-80
2023/10/17 13:20:29;;;;;;;1.23;0.97;;;;;;;;;;4989927;28;20584;-80
2023/10/17 13:23:04;;;;;;;3.50;1.10;;;;;;;;;;4988587;28;20237;-80
2023/10/17 13:25:34;;;;;;;1.13;1.00;;;;;;;;;;4976528;28;20220;-81
2023/10/17 13:28:00;;;;;;;4.07;1.00;;;;;;;;;;4973460;28;20228;-81
2023/10/17 13:30:26;;;;;;;3.73;1.03;;;;;;;;;;4972025;28;20217;-81
2023/10/17 13:32:52;;;;;;;1.97;0.83;;;;;;;;;;4987049;28;20684;-82
2023/10/17 13:35:20;;;;;;;1.23;0.80;;;;;;;;;;4974177;28;20221;-80
2023/10/17 13:37:51;;;;;;;0.60;0.60;;;;;;;;;;4989629;28;20311;-80
2023/10/17 13:40:19;;;;;;;1.00;0.70;;;;;;;;;;5008212;28;20224;-80
2023/10/17 13:42:46;;;;;;;1.77;0.93;;;;;;;;;;4990836;28;20220;-81
2023/10/17 13:45:13;;;;;;;1.00;0.60;;;;;;;;;;4989387;28;20307;-80
2023/10/17 13:47:42;;;;;;;0.70;0.63;;;;;;;;;;4969611;28;20225;-80
2023/10/17 13:50:13;;;;;;;2.10;1.00;;;;;;;;;;4964767;28;20221;-80
2023/10/17 13:52:48;;;;;;;2.17;1.00;;;;;;;;;;4981747;28;20238;-81
2023/10/17 13:55:25;;;;;;;1.63;0.83;;;;;;;;;;4967223;28;20225;-80
2023/10/17 13:58:01;;;;;;;1.83;0.90;;;;;;;;;;5001159;28;20228;-80
2023/10/17 14:00:42;;;;;;;2.53;0.87;;;;;;;;;;4977819;28;20286;-80
2023/10/17 14:03:09;;;;;;;1.63;1.07;;;;;;;;;;4978076;28;20307;-78
2023/10/17 14:05:37;;;;;;;1.70;1.07;;;;;;;;;;5004050;23;20237;-73
2023/10/17 14:08:05;;;;;;;2.60;1.00;;;;;;;;;;4990059;28;20224;-73
2023/10/17 14:10:32;;;;;;;2.27;1.00;;;;;;;;;;4974254;28;20235;-73
2023/10/17 14:12:58;;;;;;;1.03;0.70;;;;;;;;;;4983056;28;20312;-72
2023/10/17 14:15:23;;;;;;;2.03;0.80;;;;;;;;;;4962830;28;20225;-71
2023/10/17 14:17:53;;;;;;;1.90;0.63;;;;;;;;;;4967647;28;20257;-73
2023/10/17 14:20:38;;;;;;;1.57;0.77;;;;;;;;;;4964265;28;20257;-73
2023/10/17 14:23:26;;;;;;;1.53;0.80;;;;;;;;;;4995730;28;20271;-73
2023/10/17 14:26:00;;;;;;;1.83;1.00;;;;;;;;;;4999723;28;20232;-73
2023/10/17 14:28:29;;;;;;;5.67;1.00;;;;;;;;;;4981344;28;20224;-72
2023/10/17 14:31:01;;;;;;;1.27;0.80;;;;;;;;;;4982383;28;20224;-73
2023/10/17 14:33:27;;;;;;;3.03;0.93;;;;;;;;;;4996221;28;20257;-73
2023/10/17 14:35:55;;;;;;;3.80;1.07;;;;;;;;;;4983346;28;20698;-73
2023/10/17 14:38:27;;;;;;;2.83;1.10;;;;;;;;;;4983180;28;23086;-72
2023/10/17 14:40:56;;;;;;;1.50;0.97;;;;;;;;;;4988655;28;20627;-73
2023/10/17 14:43:21;;;;;;;1.73;1.00;;;;;;;;;;4985679;28;20647;-73
2023/10/17 14:45:47;;;;;;;3.87;0.93;;;;;;;;;;4990348;28;20229;-72
2023/10/17 14:48:13;;;;;;;2.20;1.03;;;;;;;;;;4983059;28;20380;-73
2023/10/17 14:50:39;;;;;;;1.43;0.90;;;;;;;;;;4984659;28;20225;-72
2023/10/17 14:53:07;;;;;;;4.10;1.07;;;;;;;;;;4979323;28;20627;-72
2023/10/17 14:55:34;;;;;;;2.27;0.93;;;;;;;;;;4983294;28;20228;-73
2023/10/17 14:58:03;;;;;;;1.13;0.77;;;;;;;;;;4989652;28;20224;-72
2023/10/17 15:00:34;;;;;;;2.67;0.90;;;;;;;;;;4988605;28;20218;-73
2023/10/17 15:02:59;;;;;;;1.77;0.87;;;;;;;;;;5001343;28;20224;-73
2023/10/17 15:05:25;;;;;;;0.83;0.80;;;;;;;;;;4981842;28;20216;-72
2023/10/17 15:07:51;;;;;;;1.60;0.80;;;;;;;;;;5009025;28;20223;-73
2023/10/17 15:10:19;;;;;;;0.70;0.70;;;;;;;;;;4967159;28;20221;-73
2023/10/17 15:12:50;;;;;;;1.03;0.80;;;;;;;;;;4995689;28;20680;-73
2023/10/17 15:15:19;;;;;;;1.83;0.90;;;;;;;;;;5006680;28;20233;-73
2023/10/17 15:17:44;;;;;;;1.70;0.83;;;;;;;;;;4976159;28;20231;-73
2023/10/17 15:20:11;;;;;;;2.30;1.00;;;;;;;;;;4991950;28;20221;-73
2023/10/17 15:22:44;;;;;;;2.27;1.17;;;;;;;;;;4987398;28;20331;-73
2023/10/17 15:25:18;;;;;;;1.20;1.00;;;;;;;;;;4996491;28;20232;-72
2023/10/17 15:27:47;;;;;;;1.97;1.17;;;;;;;;;;5007673;28;20217;-72
2023/10/17 15:30:13;;;;;;;1.57;1.10;;;;;;;;;;4996675;28;20228;-72
2023/10/17 15:32:41;;;;;;;3.03;1.30;;;;;;;;;;4990722;28;20224;-72
2023/10/17 15:35:13;;;;;;;1.97;1.40;;;;;;;;;;4994444;28;20252;-72
2023/10/17 15:37:48;;;;;;;2.40;1.30;;;;;;;;;;4990882;28;20217;-72
2023/10/17 15:40:19;;;;;;;4.57;1.20;;;;;;;;;;4997193;28;20213;-72
2023/10/17 15:42:56;;;;;;;1.97;1.00;;;;;;;;;;4996643;28;20236;-72
2023/10/17 15:45:22;;;;;;;3.47;1.20;;;;;;;;;;4985418;28;20246;-72
2023/10/17 15:47:51;;;;;;;1.40;0.90;;;;;;;;;;4999299;28;20267;-72
2023/10/17 15:50:19;;;;;;;2.57;1.10;;;;;;;;;;5011129;28;20213;-72
2023/10/17 15:52:51;;;;;;;1.57;1.00;;;;;;;;;;5007181;28;20324;-71
2023/10/17 15:55:17;;;;;;;2.70;1.37;;;;;;;;;;4994473;28;20221;-71
2023/10/17 15:57:45;;;;;;;3.47;1.33;;;;;;;;;;4979709;28;20761;-72
2023/10/17 16:00:16;;;;;;;3.53;2.77;;;;;;;;;;4981027;28;20224;-72
2023/10/17 16:02:45;;;;;;;6.03;2.27;;;;;;;;;;4997988;28;20237;-73
2023/10/17 16:05:11;;;;;;;4.00;3.57;;;;;;;;;;4972809;28;20645;-73
2023/10/17 16:07:45;;;;;;;4.33;2.90;;;;;;;;;;4976566;28;20227;-72
2023/10/17 16:10:18;;;;;;;2.43;2.07;;;;;;;;;;4984991;28;20221;-72
2023/10/17 16:12:46;;;;;;;2.33;1.90;;;;;;;;;;4998032;28;20228;-73
2023/10/17 16:15:12;;;;;;;2.03;1.43;;;;;;;;;;4985934;28;20584;-72
2023/10/17 16:17:40;;;;;;;1.60;1.00;;;;;;;;;;4988927;28;20293;-72
2023/10/17 16:20:11;;;;;;;1.40;1.13;;;;;;;;;;4962750;28;20690;-72
2023/10/17 16:22:39;;;;;;;2.37;1.33;;;;;;;;;;4983467;28;20317;-70
2023/10/17 16:25:09;;;;;;;1.77;1.33;;;;;;;;;;4996437;28;20220;-73
2023/10/17 16:27:35;;;;;;;1.50;1.40;;;;;;;;;;4973597;28;20217;-72
2023/10/17 16:30:05;;;;;;;1.63;1.33;;;;;;;;;;4997737;28;20209;-71
2023/10/17 16:32:32;;;;;;;6.47;1.70;;;;;;;;;;4980542;28;20351;-70
2023/10/17 16:34:58;;;;;;;4.40;1.87;;;;;;;;;;5000496;28;20228;-71
2023/10/17 16:37:24;;;;;;;3.00;1.70;;;;;;;;;;4994895;28;20221;-71
2023/10/17 16:39:49;;;;;;;1.67;1.37;;;;;;;;;;4978649;28;20232;-72
2023/10/17 16:42:15;;;;;;;3.70;1.47;;;;;;;;;;4970052;28;20232;-70
2023/10/17 16:44:40;;;;;;;2.40;1.40;;;;;;;;;;4989827;28;20229;-71
2023/10/17 16:47:11;;;;;;;5.00;1.60;;;;;;;;;;4995530;28;20209;-71
2023/10/17 16:49:36;;;;;;;2.80;1.70;;;;;;;;;;4981951;28;20244;-71
2023/10/17 16:52:04;;;;;;;4.43;2.50;;;;;;;;;;4983630;28;20217;-71
2023/10/17 16:54:34;;;;;;;2.47;1.70;;;;;;;;;;4985552;28;20592;-71
2023/10/17 16:57:00;;;;;;;3.10;1.97;;;;;;;;;;5009948;28;20227;-71
2023/10/17 16:59:28;;;;;;;2.50;1.80;;;;;;;;;;4968869;28;20225;-71
2023/10/17 17:01:54;;;;;;;2.83;2.10;;;;;;;;;;4995200;28;20234;-71
2023/10/17 17:04:34;;;;;;;3.97;2.57;;;;;;;;;;5001850;28;20224;-74